sensor_id;sensor_type;location;lat;lon;timestamp;P1;durP1;ratioP1;P2;durP2;ratioP2
15132;SDS011;7667;51.232;17.110;2023-02-03T00:02:13;6.43;;;3.90;;
15132;SDS011;7667;51.232;17.110;2023-02-03T00:04:41;5.27;;;3.70;;
15132;SDS011;7667;51.232;17.110;2023-02-03T00:07:09;6.13;;;4.30;;
15132;SDS011;7667;51.232;17.110;2023-02-03T00:09:38;8.17;;;4.20;;
15132;SDS011;7667;51.232;17.110;2023-02-03T00:12:06;5.70;;;3.87;;
15132;SDS011;7667;51.232;17.110;2023-02-03T00:14:33;5.33;;;3.40;;
15132;SDS011;7667;51.232;17.110;2023-02-03T00:17:03;6.53;;;3.73;;
15132;SDS011;7667;51.232;17.110;2023-02-03T00:19:31;6.00;;;3.77;;
15132;SDS011;7667;51.232;17.110;2023-02-03T00:21:59;5.40;;;3.77;;
15132;SDS011;7667;51.232;17.110;2023-02-03T00:24:26;6.47;;;3.70;;
15132;SDS011;7667;51.232;17.110;2023-02-03T00:26:54;5.80;;;4.03;;
15132;SDS011;7667;51.232;17.110;2023-02-03T00:29:21;7.53;;;4.10;;
15132;SDS011;7667;51.232;17.110;2023-02-03T00:31:51;7.07;;;4.23;;
15132;SDS011;7667;51.232;17.110;2023-02-03T00:34:20;6.43;;;4.50;;
15132;SDS011;7667;51.232;17.110;2023-02-03T00:36:48;8.37;;;4.23;;
15132;SDS011;7667;51.232;17.110;2023-02-03T00:39:15;8.40;;;5.37;;
15132;SDS011;7667;51.232;17.110;2023-02-03T00:41:43;8.83;;;5.40;;
15132;SDS011;7667;51.232;17.110;2023-02-03T00:44:10;7.07;;;5.03;;
15132;SDS011;7667;51.232;17.110;2023-02-03T00:46:37;7.40;;;5.13;;
15132;SDS011;7667;51.232;17.110;2023-02-03T00:49:05;7.50;;;5.27;;
15132;SDS011;7667;51.232;17.110;2023-02-03T00:51:33;8.23;;;5.40;;
15132;SDS011;7667;51.232;17.110;2023-02-03T00:54:00;9.50;;;6.60;;
15132;SDS011;7667;51.232;17.110;2023-02-03T00:56:28;14.27;;;12.73;;
15132;SDS011;7667;51.232;17.110;2023-02-03T00:58:55;12.77;;;9.50;;
15132;SDS011;7667;51.232;17.110;2023-02-03T01:01:23;10.67;;;7.83;;
15132;SDS011;7667;51.232;17.110;2023-02-03T01:03:50;10.70;;;8.33;;
15132;SDS011;7667;51.232;17.110;2023-02-03T01:06:22;11.47;;;8.07;;
15132;SDS011;7667;51.232;17.110;2023-02-03T01:08:49;13.00;;;8.57;;
15132;SDS011;7667;51.232;17.110;2023-02-03T01:11:18;11.97;;;8.40;;
15132;SDS011;7667;51.232;17.110;2023-02-03T01:13:55;11.70;;;7.83;;
15132;SDS011;7667;51.232;17.110;2023-02-03T01:16:28;13.03;;;8.17;;
15132;SDS011;7667;51.232;17.110;2023-02-03T01:18:56;11.93;;;8.03;;
15132;SDS011;7667;51.232;17.110;2023-02-03T01:21:25;12.47;;;8.37;;
15132;SDS011;7667;51.232;17.110;2023-02-03T01:23:53;12.57;;;8.13;;
15132;SDS011;7667;51.232;17.110;2023-02-03T01:26:21;10.93;;;7.80;;
15132;SDS011;7667;51.232;17.110;2023-02-03T01:28:53;10.93;;;7.20;;
15132;SDS011;7667;51.232;17.110;2023-02-03T01:31:28;10.47;;;6.70;;
15132;SDS011;7667;51.232;17.110;2023-02-03T01:34:02;11.87;;;6.47;;
15132;SDS011;7667;51.232;17.110;2023-02-03T01:36:30;11.07;;;7.60;;
15132;SDS011;7667;51.232;17.110;2023-02-03T01:38:59;10.87;;;8.43;;
15132;SDS011;7667;51.232;17.110;2023-02-03T01:41:28;11.77;;;8.80;;
15132;SDS011;7667;51.232;17.110;2023-02-03T01:43:59;12.73;;;9.03;;
15132;SDS011;7667;51.232;17.110;2023-02-03T01:49:28;14.10;;;9.27;;
15132;SDS011;7667;51.232;17.110;2023-02-03T01:52:01;14.57;;;9.37;;
15132;SDS011;7667;51.232;17.110;2023-02-03T01:54:31;11.77;;;9.30;;
15132;SDS011;7667;51.232;17.110;2023-02-03T01:57:05;12.70;;;8.40;;
15132;SDS011;7667;51.232;17.110;2023-02-03T01:59:42;14.20;;;8.87;;
15132;SDS011;7667;51.232;17.110;2023-02-03T02:02:11;11.37;;;7.77;;
15132;SDS011;7667;51.232;17.110;2023-02-03T02:04:47;10.40;;;7.37;;
15132;SDS011;7667;51.232;17.110;2023-02-03T02:07:19;10.50;;;7.67;;
15132;SDS011;7667;51.232;17.110;2023-02-03T02:09:46;12.30;;;7.80;;
15132;SDS011;7667;51.232;17.110;2023-02-03T02:12:14;10.40;;;7.10;;
15132;SDS011;7667;51.232;17.110;2023-02-03T02:14:42;10.07;;;6.70;;
15132;SDS011;7667;51.232;17.110;2023-02-03T02:20:37;11.83;;;6.50;;
15132;SDS011;7667;51.232;17.110;2023-02-03T02:29:22;10.77;;;7.10;;
15132;SDS011;7667;51.232;17.110;2023-02-03T02:34:58;10.43;;;7.43;;
15132;SDS011;7667;51.232;17.110;2023-02-03T02:37:52;10.70;;;8.23;;
15132;SDS011;7667;51.232;17.110;2023-02-03T02:40:53;11.07;;;7.30;;
15132;SDS011;7667;51.232;17.110;2023-02-03T02:43:40;11.70;;;7.97;;
15132;SDS011;7667;51.232;17.110;2023-02-03T02:46:34;12.90;;;8.30;;
15132;SDS011;7667;51.232;17.110;2023-02-03T02:52:07;12.03;;;8.30;;
15132;SDS011;7667;51.232;17.110;2023-02-03T02:54:36;10.37;;;7.57;;
15132;SDS011;7667;51.232;17.110;2023-02-03T02:57:08;13.87;;;8.60;;
15132;SDS011;7667;51.232;17.110;2023-02-03T02:59:38;13.50;;;8.50;;
15132;SDS011;7667;51.232;17.110;2023-02-03T03:02:07;13.13;;;8.87;;
15132;SDS011;7667;51.232;17.110;2023-02-03T03:04:36;12.30;;;8.53;;
15132;SDS011;7667;51.232;17.110;2023-02-03T03:07:08;12.03;;;7.63;;
15132;SDS011;7667;51.232;17.110;2023-02-03T03:09:43;10.77;;;7.83;;
15132;SDS011;7667;51.232;17.110;2023-02-03T03:14:44;33.23;;;19.30;;
15132;SDS011;7667;51.232;17.110;2023-02-03T03:17:25;13.27;;;9.50;;
15132;SDS011;7667;51.232;17.110;2023-02-03T03:19:59;11.67;;;8.40;;
15132;SDS011;7667;51.232;17.110;2023-02-03T03:22:34;11.57;;;7.40;;
15132;SDS011;7667;51.232;17.110;2023-02-03T03:25:13;9.23;;;7.20;;
15132;SDS011;7667;51.232;17.110;2023-02-03T03:27:47;10.80;;;7.37;;
15132;SDS011;7667;51.232;17.110;2023-02-03T03:30:24;11.53;;;7.50;;
15132;SDS011;7667;51.232;17.110;2023-02-03T03:32:56;12.43;;;7.97;;
15132;SDS011;7667;51.232;17.110;2023-02-03T03:35:24;12.57;;;8.27;;
15132;SDS011;7667;51.232;17.110;2023-02-03T03:37:59;11.13;;;7.70;;
15132;SDS011;7667;51.232;17.110;2023-02-03T03:40:38;10.03;;;7.60;;
15132;SDS011;7667;51.232;17.110;2023-02-03T03:43:14;12.80;;;8.40;;
15132;SDS011;7667;51.232;17.110;2023-02-03T03:48:43;11.07;;;7.23;;
15132;SDS011;7667;51.232;17.110;2023-02-03T03:51:20;11.67;;;7.77;;
15132;SDS011;7667;51.232;17.110;2023-02-03T03:54:02;12.73;;;7.97;;
15132;SDS011;7667;51.232;17.110;2023-02-03T03:56:42;10.47;;;7.93;;
15132;SDS011;7667;51.232;17.110;2023-02-03T03:59:19;11.77;;;7.87;;
15132;SDS011;7667;51.232;17.110;2023-02-03T04:01:48;11.17;;;7.87;;
15132;SDS011;7667;51.232;17.110;2023-02-03T04:04:18;13.20;;;10.27;;
15132;SDS011;7667;51.232;17.110;2023-02-03T04:06:46;13.53;;;9.57;;
15132;SDS011;7667;51.232;17.110;2023-02-03T04:09:14;11.17;;;7.87;;
15132;SDS011;7667;51.232;17.110;2023-02-03T04:11:43;10.20;;;7.53;;
15132;SDS011;7667;51.232;17.110;2023-02-03T04:14:29;12.40;;;7.57;;
15132;SDS011;7667;51.232;17.110;2023-02-03T04:17:05;10.03;;;7.07;;
15132;SDS011;7667;51.232;17.110;2023-02-03T04:19:32;10.80;;;7.30;;
15132;SDS011;7667;51.232;17.110;2023-02-03T04:21:59;11.73;;;8.33;;
15132;SDS011;7667;51.232;17.110;2023-02-03T04:24:27;9.83;;;7.17;;
15132;SDS011;7667;51.232;17.110;2023-02-03T04:26:54;11.40;;;6.77;;
15132;SDS011;7667;51.232;17.110;2023-02-03T04:29:22;10.30;;;7.13;;
15132;SDS011;7667;51.232;17.110;2023-02-03T04:31:49;15.27;;;9.80;;
15132;SDS011;7667;51.232;17.110;2023-02-03T04:34:17;18.47;;;11.60;;
15132;SDS011;7667;51.232;17.110;2023-02-03T04:36:44;26.87;;;15.73;;
15132;SDS011;7667;51.232;17.110;2023-02-03T04:39:11;19.67;;;12.27;;
15132;SDS011;7667;51.232;17.110;2023-02-03T04:41:39;22.73;;;12.77;;
15132;SDS011;7667;51.232;17.110;2023-02-03T04:44:07;20.07;;;11.30;;
15132;SDS011;7667;51.232;17.110;2023-02-03T04:46:34;15.33;;;9.63;;
15132;SDS011;7667;51.232;17.110;2023-02-03T04:49:02;18.80;;;10.80;;
15132;SDS011;7667;51.232;17.110;2023-02-03T04:51:29;13.60;;;8.13;;
15132;SDS011;7667;51.232;17.110;2023-02-03T04:53:57;14.73;;;8.97;;
15132;SDS011;7667;51.232;17.110;2023-02-03T04:56:24;14.20;;;9.37;;
15132;SDS011;7667;51.232;17.110;2023-02-03T04:58:51;13.47;;;8.97;;
15132;SDS011;7667;51.232;17.110;2023-02-03T05:01:19;9.33;;;6.77;;
15132;SDS011;7667;51.232;17.110;2023-02-03T05:03:46;10.50;;;6.23;;
15132;SDS011;7667;51.232;17.110;2023-02-03T05:06:14;9.50;;;6.43;;
15132;SDS011;7667;51.232;17.110;2023-02-03T05:08:41;9.10;;;6.23;;
15132;SDS011;7667;51.232;17.110;2023-02-03T05:11:08;15.60;;;10.33;;
15132;SDS011;7667;51.232;17.110;2023-02-03T05:13:36;8.30;;;6.10;;
15132;SDS011;7667;51.232;17.110;2023-02-03T05:16:03;8.03;;;5.37;;
15132;SDS011;7667;51.232;17.110;2023-02-03T05:18:31;8.43;;;5.70;;
15132;SDS011;7667;51.232;17.110;2023-02-03T05:20:59;7.83;;;5.30;;
15132;SDS011;7667;51.232;17.110;2023-02-03T05:23:26;7.77;;;4.90;;
15132;SDS011;7667;51.232;17.110;2023-02-03T05:25:54;8.50;;;5.30;;
15132;SDS011;7667;51.232;17.110;2023-02-03T05:28:21;7.07;;;4.90;;
15132;SDS011;7667;51.232;17.110;2023-02-03T05:30:49;7.20;;;4.73;;
15132;SDS011;7667;51.232;17.110;2023-02-03T05:33:17;6.90;;;5.07;;
15132;SDS011;7667;51.232;17.110;2023-02-03T05:35:44;7.37;;;5.03;;
15132;SDS011;7667;51.232;17.110;2023-02-03T05:38:12;7.97;;;5.57;;
15132;SDS011;7667;51.232;17.110;2023-02-03T05:40:39;8.80;;;5.37;;
15132;SDS011;7667;51.232;17.110;2023-02-03T05:43:25;6.87;;;4.80;;
15132;SDS011;7667;51.232;17.110;2023-02-03T05:45:54;7.23;;;5.30;;
15132;SDS011;7667;51.232;17.110;2023-02-03T05:48:26;9.73;;;4.90;;
15132;SDS011;7667;51.232;17.110;2023-02-03T05:50:53;7.27;;;5.00;;
15132;SDS011;7667;51.232;17.110;2023-02-03T05:53:21;7.20;;;5.37;;
15132;SDS011;7667;51.232;17.110;2023-02-03T05:55:49;6.90;;;5.23;;
15132;SDS011;7667;51.232;17.110;2023-02-03T05:58:16;6.93;;;5.03;;
15132;SDS011;7667;51.232;17.110;2023-02-03T06:00:44;6.90;;;5.17;;
15132;SDS011;7667;51.232;17.110;2023-02-03T06:03:12;7.47;;;5.23;;
15132;SDS011;7667;51.232;17.110;2023-02-03T06:05:40;9.23;;;5.33;;
15132;SDS011;7667;51.232;17.110;2023-02-03T06:08:09;9.20;;;6.00;;
15132;SDS011;7667;51.232;17.110;2023-02-03T06:10:36;7.97;;;5.63;;
15132;SDS011;7667;51.232;17.110;2023-02-03T06:13:11;7.87;;;5.67;;
15132;SDS011;7667;51.232;17.110;2023-02-03T06:15:40;9.07;;;5.80;;
15132;SDS011;7667;51.232;17.110;2023-02-03T06:18:08;7.10;;;5.43;;
15132;SDS011;7667;51.232;17.110;2023-02-03T06:20:36;8.87;;;5.70;;
15132;SDS011;7667;51.232;17.110;2023-02-03T06:23:03;8.30;;;5.50;;
15132;SDS011;7667;51.232;17.110;2023-02-03T06:25:30;7.90;;;5.10;;
15132;SDS011;7667;51.232;17.110;2023-02-03T06:27:58;7.57;;;5.30;;
15132;SDS011;7667;51.232;17.110;2023-02-03T06:30:26;7.93;;;5.07;;
15132;SDS011;7667;51.232;17.110;2023-02-03T06:32:54;8.03;;;5.47;;
15132;SDS011;7667;51.232;17.110;2023-02-03T06:35:21;8.17;;;5.83;;
15132;SDS011;7667;51.232;17.110;2023-02-03T06:37:48;6.23;;;5.20;;
15132;SDS011;7667;51.232;17.110;2023-02-03T06:40:16;7.73;;;5.50;;
15132;SDS011;7667;51.232;17.110;2023-02-03T06:42:44;8.20;;;5.60;;
15132;SDS011;7667;51.232;17.110;2023-02-03T06:45:13;8.13;;;6.10;;
15132;SDS011;7667;51.232;17.110;2023-02-03T06:47:41;8.30;;;6.50;;
15132;SDS011;7667;51.232;17.110;2023-02-03T06:50:11;8.93;;;6.80;;
15132;SDS011;7667;51.232;17.110;2023-02-03T06:52:40;9.47;;;6.40;;
15132;SDS011;7667;51.232;17.110;2023-02-03T06:55:09;7.00;;;6.10;;
15132;SDS011;7667;51.232;17.110;2023-02-03T06:57:46;7.93;;;6.17;;
15132;SDS011;7667;51.232;17.110;2023-02-03T07:00:15;9.73;;;6.90;;
15132;SDS011;7667;51.232;17.110;2023-02-03T07:02:45;8.37;;;7.13;;
15132;SDS011;7667;51.232;17.110;2023-02-03T07:05:22;10.10;;;7.40;;
15132;SDS011;7667;51.232;17.110;2023-02-03T07:07:51;7.93;;;6.77;;
15132;SDS011;7667;51.232;17.110;2023-02-03T07:10:18;9.60;;;7.03;;
15132;SDS011;7667;51.232;17.110;2023-02-03T07:12:46;8.73;;;6.77;;
15132;SDS011;7667;51.232;17.110;2023-02-03T07:15:16;8.77;;;6.90;;
15132;SDS011;7667;51.232;17.110;2023-02-03T07:17:45;9.83;;;7.07;;
15132;SDS011;7667;51.232;17.110;2023-02-03T07:20:21;7.93;;;5.90;;
15132;SDS011;7667;51.232;17.110;2023-02-03T07:22:50;8.30;;;5.93;;
15132;SDS011;7667;51.232;17.110;2023-02-03T07:25:19;6.60;;;5.17;;
15132;SDS011;7667;51.232;17.110;2023-02-03T07:27:47;5.37;;;4.80;;
15132;SDS011;7667;51.232;17.110;2023-02-03T07:30:15;4.93;;;4.30;;
15132;SDS011;7667;51.232;17.110;2023-02-03T07:32:49;6.47;;;4.47;;
15132;SDS011;7667;51.232;17.110;2023-02-03T07:35:18;5.17;;;4.37;;
15132;SDS011;7667;51.232;17.110;2023-02-03T07:37:46;5.17;;;4.43;;
15132;SDS011;7667;51.232;17.110;2023-02-03T07:40:14;5.23;;;4.27;;
15132;SDS011;7667;51.232;17.110;2023-02-03T07:42:42;5.60;;;4.63;;
15132;SDS011;7667;51.232;17.110;2023-02-03T07:45:12;10.53;;;8.73;;
15132;SDS011;7667;51.232;17.110;2023-02-03T07:47:42;8.53;;;7.60;;
15132;SDS011;7667;51.232;17.110;2023-02-03T07:50:10;5.40;;;4.90;;
15132;SDS011;7667;51.232;17.110;2023-02-03T07:52:38;7.37;;;6.67;;
15132;SDS011;7667;51.232;17.110;2023-02-03T07:55:06;5.40;;;4.83;;
15132;SDS011;7667;51.232;17.110;2023-02-03T07:57:34;5.60;;;4.70;;
15132;SDS011;7667;51.232;17.110;2023-02-03T08:00:03;5.50;;;4.27;;
15132;SDS011;7667;51.232;17.110;2023-02-03T08:02:31;7.23;;;3.80;;
15132;SDS011;7667;51.232;17.110;2023-02-03T08:04:58;7.03;;;5.30;;
15132;SDS011;7667;51.232;17.110;2023-02-03T08:07:26;12.87;;;11.57;;
15132;SDS011;7667;51.232;17.110;2023-02-03T08:09:53;7.10;;;6.40;;
15132;SDS011;7667;51.232;17.110;2023-02-03T08:12:20;5.83;;;4.77;;
15132;SDS011;7667;51.232;17.110;2023-02-03T08:14:48;6.43;;;5.27;;
15132;SDS011;7667;51.232;17.110;2023-02-03T08:17:15;5.87;;;4.90;;
15132;SDS011;7667;51.232;17.110;2023-02-03T08:19:43;6.10;;;5.00;;
15132;SDS011;7667;51.232;17.110;2023-02-03T08:22:10;7.20;;;5.80;;
15132;SDS011;7667;51.232;17.110;2023-02-03T08:24:41;8.07;;;6.73;;
15132;SDS011;7667;51.232;17.110;2023-02-03T08:27:12;9.23;;;8.10;;
15132;SDS011;7667;51.232;17.110;2023-02-03T08:29:40;8.30;;;7.50;;
15132;SDS011;7667;51.232;17.110;2023-02-03T08:32:08;7.37;;;6.57;;
15132;SDS011;7667;51.232;17.110;2023-02-03T08:34:37;6.63;;;6.03;;
15132;SDS011;7667;51.232;17.110;2023-02-03T08:37:05;7.70;;;5.23;;
15132;SDS011;7667;51.232;17.110;2023-02-03T08:39:33;5.70;;;5.10;;
15132;SDS011;7667;51.232;17.110;2023-02-03T08:42:01;6.30;;;5.07;;
15132;SDS011;7667;51.232;17.110;2023-02-03T08:44:30;7.10;;;5.50;;
15132;SDS011;7667;51.232;17.110;2023-02-03T08:46:58;7.63;;;5.70;;
15132;SDS011;7667;51.232;17.110;2023-02-03T08:49:27;8.07;;;5.50;;
15132;SDS011;7667;51.232;17.110;2023-02-03T08:51:56;7.77;;;5.73;;
15132;SDS011;7667;51.232;17.110;2023-02-03T08:54:24;6.83;;;5.43;;
15132;SDS011;7667;51.232;17.110;2023-02-03T08:56:52;7.10;;;5.67;;
15132;SDS011;7667;51.232;17.110;2023-02-03T08:59:20;7.17;;;5.53;;
15132;SDS011;7667;51.232;17.110;2023-02-03T09:01:47;6.37;;;5.40;;
15132;SDS011;7667;51.232;17.110;2023-02-03T09:04:15;7.00;;;5.60;;
15132;SDS011;7667;51.232;17.110;2023-02-03T09:06:45;6.80;;;6.10;;
15132;SDS011;7667;51.232;17.110;2023-02-03T09:09:15;10.40;;;7.73;;
15132;SDS011;7667;51.232;17.110;2023-02-03T09:11:43;11.37;;;7.43;;
15132;SDS011;7667;51.232;17.110;2023-02-03T09:14:11;11.17;;;9.07;;
15132;SDS011;7667;51.232;17.110;2023-02-03T09:16:39;11.17;;;9.87;;
15132;SDS011;7667;51.232;17.110;2023-02-03T09:19:06;7.37;;;5.90;;
15132;SDS011;7667;51.232;17.110;2023-02-03T09:21:34;8.97;;;6.83;;
15132;SDS011;7667;51.232;17.110;2023-02-03T09:24:10;11.90;;;8.33;;
15132;SDS011;7667;51.232;17.110;2023-02-03T09:26:38;12.80;;;8.83;;
15132;SDS011;7667;51.232;17.110;2023-02-03T09:29:06;11.00;;;8.60;;
15132;SDS011;7667;51.232;17.110;2023-02-03T09:31:33;12.70;;;8.13;;
15132;SDS011;7667;51.232;17.110;2023-02-03T09:34:01;9.73;;;6.63;;
15132;SDS011;7667;51.232;17.110;2023-02-03T09:36:28;7.70;;;6.50;;
15132;SDS011;7667;51.232;17.110;2023-02-03T09:38:56;10.23;;;7.17;;
15132;SDS011;7667;51.232;17.110;2023-02-03T09:46:47;10.03;;;7.13;;
15132;SDS011;7667;51.232;17.110;2023-02-03T10:30:22;7.80;;;6.50;;
15132;SDS011;7667;51.232;17.110;2023-02-03T10:32:53;6.73;;;5.50;;
15132;SDS011;7667;51.232;17.110;2023-02-03T10:35:31;8.53;;;6.20;;
15132;SDS011;7667;51.232;17.110;2023-02-03T10:41:12;9.77;;;7.60;;
15132;SDS011;7667;51.232;17.110;2023-02-03T10:43:42;20.57;;;14.27;;
15132;SDS011;7667;51.232;17.110;2023-02-03T10:46:13;27.53;;;15.90;;
15132;SDS011;7667;51.232;17.110;2023-02-03T10:49:02;23.07;;;13.53;;
15132;SDS011;7667;51.232;17.110;2023-02-03T10:51:35;26.60;;;15.53;;
15132;SDS011;7667;51.232;17.110;2023-02-03T10:57:03;23.97;;;17.73;;
15132;SDS011;7667;51.232;17.110;2023-02-03T10:59:43;14.07;;;10.70;;
15132;SDS011;7667;51.232;17.110;2023-02-03T11:02:28;7.37;;;5.97;;
15132;SDS011;7667;51.232;17.110;2023-02-03T11:07:42;10.60;;;6.57;;
15132;SDS011;7667;51.232;17.110;2023-02-03T11:13:14;8.80;;;6.50;;
15132;SDS011;7667;51.232;17.110;2023-02-03T11:16:28;7.20;;;5.70;;
15132;SDS011;7667;51.232;17.110;2023-02-03T11:18:41;7.87;;;6.00;;
15132;SDS011;7667;51.232;17.110;2023-02-03T11:24:04;9.10;;;6.77;;
15132;SDS011;7667;51.232;17.110;2023-02-03T11:26:40;10.70;;;7.37;;
15132;SDS011;7667;51.232;17.110;2023-02-03T11:29:21;7.90;;;6.43;;
15132;SDS011;7667;51.232;17.110;2023-02-03T11:31:57;8.60;;;6.23;;
15132;SDS011;7667;51.232;17.110;2023-02-03T11:34:30;10.10;;;6.67;;
15132;SDS011;7667;51.232;17.110;2023-02-03T11:42:38;10.57;;;5.90;;
15132;SDS011;7667;51.232;17.110;2023-02-03T11:45:40;7.23;;;6.10;;
15132;SDS011;7667;51.232;17.110;2023-02-03T11:48:19;6.53;;;5.10;;
15132;SDS011;7667;51.232;17.110;2023-02-03T11:51:03;5.57;;;4.17;;
15132;SDS011;7667;51.232;17.110;2023-02-03T12:09:17;2.57;;;1.87;;
15132;SDS011;7667;51.232;17.110;2023-02-03T12:17:57;2.50;;;1.90;;
15132;SDS011;7667;51.232;17.110;2023-02-03T12:20:59;2.17;;;1.80;;
15132;SDS011;7667;51.232;17.110;2023-02-03T12:29:32;2.43;;;2.03;;
15132;SDS011;7667;51.232;17.110;2023-02-03T12:35:24;2.13;;;1.93;;
15132;SDS011;7667;51.232;17.110;2023-02-03T12:38:26;2.13;;;1.80;;
15132;SDS011;7667;51.232;17.110;2023-02-03T12:41:23;2.10;;;1.83;;
15132;SDS011;7667;51.232;17.110;2023-02-03T12:43:59;2.90;;;2.30;;
15132;SDS011;7667;51.232;17.110;2023-02-03T12:46:39;2.50;;;1.83;;
15132;SDS011;7667;51.232;17.110;2023-02-03T12:49:20;3.37;;;2.27;;
15132;SDS011;7667;51.232;17.110;2023-02-03T12:52:13;3.90;;;2.20;;
15132;SDS011;7667;51.232;17.110;2023-02-03T12:57:59;4.77;;;2.60;;
15132;SDS011;7667;51.232;17.110;2023-02-03T13:00:49;2.50;;;2.20;;
15132;SDS011;7667;51.232;17.110;2023-02-03T13:06:40;4.77;;;2.70;;
15132;SDS011;7667;51.232;17.110;2023-02-03T13:09:24;3.60;;;2.70;;
15132;SDS011;7667;51.232;17.110;2023-02-03T13:15:05;3.20;;;2.73;;
15132;SDS011;7667;51.232;17.110;2023-02-03T13:20:41;3.57;;;2.23;;
15132;SDS011;7667;51.232;17.110;2023-02-03T13:23:12;4.07;;;2.67;;
15132;SDS011;7667;51.232;17.110;2023-02-03T13:25:51;3.00;;;1.97;;
15132;SDS011;7667;51.232;17.110;2023-02-03T13:40:58;2.03;;;1.70;;
15132;SDS011;7667;51.232;17.110;2023-02-03T13:43:49;2.60;;;1.50;;
15132;SDS011;7667;51.232;17.110;2023-02-03T13:46:25;2.23;;;1.40;;
15132;SDS011;7667;51.232;17.110;2023-02-03T13:48:58;1.60;;;1.30;;
15132;SDS011;7667;51.232;17.110;2023-02-03T13:51:31;2.17;;;1.40;;
15132;SDS011;7667;51.232;17.110;2023-02-03T13:54:04;1.33;;;1.20;;
15132;SDS011;7667;51.232;17.110;2023-02-03T13:57:00;1.63;;;1.23;;
15132;SDS011;7667;51.232;17.110;2023-02-03T13:59:45;2.07;;;1.30;;
15132;SDS011;7667;51.232;17.110;2023-02-03T14:10:20;2.27;;;1.90;;
15132;SDS011;7667;51.232;17.110;2023-02-03T14:18:00;2.70;;;1.23;;
15132;SDS011;7667;51.232;17.110;2023-02-03T14:23:18;2.90;;;1.23;;
15132;SDS011;7667;51.232;17.110;2023-02-03T14:25:56;3.27;;;1.20;;
15132;SDS011;7667;51.232;17.110;2023-02-03T14:28:28;4.83;;;1.37;;
15132;SDS011;7667;51.232;17.110;2023-02-03T14:31:13;5.50;;;2.00;;
15132;SDS011;7667;51.232;17.110;2023-02-03T14:33:56;4.33;;;1.53;;
15132;SDS011;7667;51.232;17.110;2023-02-03T14:36:37;3.77;;;1.40;;
15132;SDS011;7667;51.232;17.110;2023-02-03T14:48:04;3.83;;;1.40;;
15132;SDS011;7667;51.232;17.110;2023-02-03T14:56:58;4.10;;;1.33;;
15132;SDS011;7667;51.232;17.110;2023-02-03T15:11:31;4.70;;;1.90;;
15132;SDS011;7667;51.232;17.110;2023-02-03T15:16:55;5.53;;;1.90;;
15132;SDS011;7667;51.232;17.110;2023-02-03T15:19:33;6.73;;;2.10;;
15132;SDS011;7667;51.232;17.110;2023-02-03T15:22:21;5.67;;;2.23;;
15132;SDS011;7667;51.232;17.110;2023-02-03T15:24:58;7.43;;;2.00;;
15132;SDS011;7667;51.232;17.110;2023-02-03T15:27:31;6.67;;;1.80;;
15132;SDS011;7667;51.232;17.110;2023-02-03T15:30:13;6.37;;;2.10;;
15132;SDS011;7667;51.232;17.110;2023-02-03T15:33:00;7.60;;;2.30;;
15132;SDS011;7667;51.232;17.110;2023-02-03T15:35:38;6.20;;;2.07;;
15132;SDS011;7667;51.232;17.110;2023-02-03T15:38:12;8.93;;;2.20;;
15132;SDS011;7667;51.232;17.110;2023-02-03T15:41:10;6.70;;;2.40;;
15132;SDS011;7667;51.232;17.110;2023-02-03T15:43:53;8.50;;;2.23;;
15132;SDS011;7667;51.232;17.110;2023-02-03T15:51:43;7.83;;;2.63;;
15132;SDS011;7667;51.232;17.110;2023-02-03T15:54:31;8.77;;;2.30;;
15132;SDS011;7667;51.232;17.110;2023-02-03T15:57:09;12.20;;;2.37;;
15132;SDS011;7667;51.232;17.110;2023-02-03T15:59:45;8.53;;;2.60;;
15132;SDS011;7667;51.232;17.110;2023-02-03T16:02:26;8.43;;;2.40;;
15132;SDS011;7667;51.232;17.110;2023-02-03T16:04:56;6.43;;;2.40;;
15132;SDS011;7667;51.232;17.110;2023-02-03T16:07:27;7.03;;;2.20;;
15132;SDS011;7667;51.232;17.110;2023-02-03T16:09:58;7.77;;;2.33;;
15132;SDS011;7667;51.232;17.110;2023-02-03T16:12:27;9.27;;;2.90;;
15132;SDS011;7667;51.232;17.110;2023-02-03T16:14:58;9.60;;;2.67;;
15132;SDS011;7667;51.232;17.110;2023-02-03T16:17:36;9.17;;;2.57;;
15132;SDS011;7667;51.232;17.110;2023-02-03T16:22:42;10.43;;;2.50;;
15132;SDS011;7667;51.232;17.110;2023-02-03T16:25:30;7.50;;;2.43;;
15132;SDS011;7667;51.232;17.110;2023-02-03T16:28:01;10.07;;;2.53;;
15132;SDS011;7667;51.232;17.110;2023-02-03T16:30:59;6.97;;;2.10;;
15132;SDS011;7667;51.232;17.110;2023-02-03T16:33:49;9.33;;;2.93;;
15132;SDS011;7667;51.232;17.110;2023-02-03T16:36:39;6.97;;;2.07;;
15132;SDS011;7667;51.232;17.110;2023-02-03T16:39:27;6.10;;;2.40;;
15132;SDS011;7667;51.232;17.110;2023-02-03T16:42:14;4.90;;;1.33;;
15132;SDS011;7667;51.232;17.110;2023-02-03T16:45:37;6.07;;;1.70;;
15132;SDS011;7667;51.232;17.110;2023-02-03T16:48:16;6.00;;;1.80;;
15132;SDS011;7667;51.232;17.110;2023-02-03T16:51:04;5.87;;;1.70;;
15132;SDS011;7667;51.232;17.110;2023-02-03T16:53:38;8.43;;;1.93;;
15132;SDS011;7667;51.232;17.110;2023-02-03T16:56:06;6.33;;;1.57;;
15132;SDS011;7667;51.232;17.110;2023-02-03T16:58:33;9.87;;;2.13;;
15132;SDS011;7667;51.232;17.110;2023-02-03T17:01:01;7.53;;;2.20;;
15132;SDS011;7667;51.232;17.110;2023-02-03T17:03:33;10.83;;;2.93;;
15132;SDS011;7667;51.232;17.110;2023-02-03T17:06:11;7.57;;;2.33;;
15132;SDS011;7667;51.232;17.110;2023-02-03T17:08:40;9.43;;;2.20;;
15132;SDS011;7667;51.232;17.110;2023-02-03T17:11:11;11.83;;;2.70;;
15132;SDS011;7667;51.232;17.110;2023-02-03T17:13:43;11.50;;;2.57;;
15132;SDS011;7667;51.232;17.110;2023-02-03T17:16:13;12.13;;;2.53;;
15132;SDS011;7667;51.232;17.110;2023-02-03T17:18:46;13.83;;;2.30;;
15132;SDS011;7667;51.232;17.110;2023-02-03T17:21:19;13.23;;;2.93;;
15132;SDS011;7667;51.232;17.110;2023-02-03T17:23:53;15.53;;;3.10;;
15132;SDS011;7667;51.232;17.110;2023-02-03T17:26:20;15.53;;;3.07;;
15132;SDS011;7667;51.232;17.110;2023-02-03T17:28:48;15.63;;;3.40;;
15132;SDS011;7667;51.232;17.110;2023-02-03T17:31:16;14.43;;;3.10;;
15132;SDS011;7667;51.232;17.110;2023-02-03T17:33:49;8.80;;;2.67;;
15132;SDS011;7667;51.232;17.110;2023-02-03T17:36:17;11.77;;;2.60;;
15132;SDS011;7667;51.232;17.110;2023-02-03T17:38:48;10.27;;;2.80;;
15132;SDS011;7667;51.232;17.110;2023-02-03T17:41:37;15.83;;;3.00;;
15132;SDS011;7667;51.232;17.110;2023-02-03T17:44:21;15.77;;;3.30;;
15132;SDS011;7667;51.232;17.110;2023-02-03T17:47:07;15.67;;;3.03;;
15132;SDS011;7667;51.232;17.110;2023-02-03T17:49:51;15.03;;;3.37;;
15132;SDS011;7667;51.232;17.110;2023-02-03T17:52:36;12.73;;;3.03;;
15132;SDS011;7667;51.232;17.110;2023-02-03T17:55:20;15.17;;;3.47;;
15132;SDS011;7667;51.232;17.110;2023-02-03T17:57:48;13.87;;;3.37;;
15132;SDS011;7667;51.232;17.110;2023-02-03T18:00:16;11.63;;;2.87;;
15132;SDS011;7667;51.232;17.110;2023-02-03T18:02:46;10.20;;;3.07;;
15132;SDS011;7667;51.232;17.110;2023-02-03T18:05:16;13.57;;;3.53;;
15132;SDS011;7667;51.232;17.110;2023-02-03T18:07:44;14.93;;;3.47;;
15132;SDS011;7667;51.232;17.110;2023-02-03T18:10:16;12.17;;;3.00;;
15132;SDS011;7667;51.232;17.110;2023-02-03T18:12:44;15.93;;;3.27;;
15132;SDS011;7667;51.232;17.110;2023-02-03T18:15:11;14.07;;;3.73;;
15132;SDS011;7667;51.232;17.110;2023-02-03T18:17:39;14.80;;;3.30;;
15132;SDS011;7667;51.232;17.110;2023-02-03T18:20:07;17.47;;;5.50;;
15132;SDS011;7667;51.232;17.110;2023-02-03T18:22:35;19.70;;;7.30;;
15132;SDS011;7667;51.232;17.110;2023-02-03T18:25:02;17.20;;;3.93;;
15132;SDS011;7667;51.232;17.110;2023-02-03T18:27:30;14.77;;;4.10;;
15132;SDS011;7667;51.232;17.110;2023-02-03T18:29:57;17.30;;;5.17;;
15132;SDS011;7667;51.232;17.110;2023-02-03T18:32:25;13.70;;;3.40;;
15132;SDS011;7667;51.232;17.110;2023-02-03T18:34:52;13.07;;;3.67;;